createdAt,value
2022-10-03T00:02:44.228Z,0.98
2022-10-03T00:05:28.477Z,0.80
2022-10-03T00:08:01.420Z,0.80
2022-10-03T00:10:54.458Z,0.90
2022-10-03T00:13:40.271Z,0.77
2022-10-03T00:16:44.422Z,0.70
2022-10-03T00:19:33.076Z,0.70
2022-10-03T00:22:03.137Z,0.63
2022-10-03T00:24:54.477Z,0.82
2022-10-03T00:27:42.197Z,0.80
2022-10-03T00:30:24.703Z,0.90
2022-10-03T00:33:13.677Z,1.10
2022-10-03T00:36:07.122Z,0.68
2022-10-03T00:38:42.938Z,0.70
2022-10-03T00:41:15.755Z,0.80
2022-10-03T00:44:01.348Z,0.80
2022-10-03T00:46:50.236Z,1.00
2022-10-03T00:49:54.645Z,1.02
2022-10-03T00:52:46.057Z,0.80
2022-10-03T00:55:43.887Z,0.77
2022-10-03T00:58:22.378Z,1.10
2022-10-03T01:00:58.074Z,0.70
2022-10-03T01:03:46.815Z,0.90
2022-10-03T01:06:35.909Z,0.85
2022-10-03T01:09:14.917Z,0.85
2022-10-03T01:11:47.847Z,0.70
2022-10-03T01:14:28.303Z,0.80
2022-10-03T01:17:16.729Z,0.80
2022-10-03T01:20:19.168Z,0.70
2022-10-03T01:25:39.558Z,1.08
2022-10-03T01:28:56.113Z,1.13
2022-10-03T01:31:39.585Z,0.80
2022-10-03T01:34:44.215Z,0.93
2022-10-03T01:37:24.069Z,0.75
2022-10-03T01:40:16.725Z,1.30
2022-10-03T01:42:48.008Z,0.90
2022-10-03T01:45:26.234Z,1.30
2022-10-03T01:48:01.597Z,1.08
2022-10-03T01:50:33.478Z,2.00
2022-10-03T01:56:00.744Z,1.00
2022-10-03T01:58:56.988Z,1.25
2022-10-03T02:01:55.012Z,1.90
2022-10-03T02:04:27.987Z,1.38
2022-10-03T02:07:18.117Z,1.40
2022-10-03T02:09:52.047Z,1.42
2022-10-03T02:12:41.368Z,1.60
2022-10-03T02:15:18.562Z,1.13
2022-10-03T02:18:13.041Z,0.93
2022-10-03T02:20:53.169Z,0.90
2022-10-03T02:23:32.498Z,0.80
2022-10-03T02:26:30.115Z,0.80
2022-10-03T02:29:21.623Z,1.00
2022-10-03T02:32:27.522Z,1.00
2022-10-03T02:35:22.056Z,0.70
2022-10-03T02:38:18.986Z,0.90
2022-10-03T02:41:23.240Z,0.80
2022-10-03T02:43:58.827Z,1.00
2022-10-03T02:46:44.347Z,0.90
2022-10-03T02:49:33.728Z,1.30
2022-10-03T02:52:12.945Z,1.05
2022-10-03T02:54:58.737Z,1.30
2022-10-03T02:57:25.690Z,1.38
2022-10-03T03:00:06.027Z,1.60
2022-10-03T03:02:45.886Z,2.10
2022-10-03T03:05:50.208Z,2.00
2022-10-03T03:08:35.716Z,2.50
2022-10-03T03:11:21.279Z,2.50
2022-10-03T03:13:59.257Z,2.75
2022-10-03T03:17:03.758Z,2.70
2022-10-03T03:20:07.966Z,3.13
2022-10-03T03:22:56.045Z,3.10
2022-10-03T03:25:23.011Z,3.47
2022-10-03T03:28:20.534Z,3.50
2022-10-03T03:31:20.563Z,3.60
2022-10-03T03:34:25.184Z,3.45
2022-10-03T03:37:09.806Z,3.72
2022-10-03T03:39:55.408Z,3.60
2022-10-03T03:43:00.418Z,4.32
2022-10-03T03:45:47.065Z,4.40
2022-10-03T03:48:51.628Z,4.30
2022-10-03T03:51:42.998Z,3.80
2022-10-03T03:54:34.563Z,4.63
2022-10-03T03:57:16.500Z,4.60
2022-10-03T04:00:05.386Z,4.40
2022-10-03T04:03:07.063Z,4.80
2022-10-03T04:05:52.646Z,4.32
2022-10-03T04:09:04.787Z,4.13
2022-10-03T04:11:54.905Z,4.50
2022-10-03T04:14:59.280Z,4.40
2022-10-03T04:18:17.667Z,4.45
2022-10-03T04:21:09.281Z,3.97
2022-10-03T04:23:58.265Z,3.72
2022-10-03T04:26:33.908Z,4.05
2022-10-03T04:29:31.937Z,4.30
2022-10-03T04:32:15.562Z,3.80
2022-10-03T04:34:57.810Z,3.60
2022-10-03T04:40:35.010Z,4.10
2022-10-03T04:43:12.590Z,4.28
2022-10-03T04:45:51.559Z,3.42
2022-10-03T04:48:36.168Z,4.18
2022-10-03T04:51:40.412Z,4.03
2022-10-03T04:54:19.820Z,4.07
2022-10-03T04:57:05.611Z,4.07
2022-10-03T04:59:42.539Z,4.70
2022-10-03T05:02:28.094Z,4.57
2022-10-03T05:05:26.925Z,4.80
2022-10-03T05:08:00.884Z,4.38
2022-10-03T05:10:35.914Z,4.95
2022-10-03T05:13:03.275Z,5.10
2022-10-03T05:15:36.757Z,5.45
2022-10-03T05:18:41.209Z,5.47
2022-10-03T05:21:20.008Z,6.20
2022-10-03T05:24:03.095Z,5.10
2022-10-03T05:26:48.625Z,5.20
2022-10-03T05:29:32.357Z,5.25
2022-10-03T05:32:00.865Z,5.10
2022-10-03T05:35:05.164Z,5.43
2022-10-03T05:38:08.635Z,5.18
2022-10-03T05:40:38.004Z,5.30
2022-10-03T05:43:23.849Z,5.72
2022-10-03T05:46:27.858Z,4.85
2022-10-03T05:49:32.497Z,4.90
2022-10-03T05:52:32.791Z,4.97
2022-10-03T05:55:11.829Z,5.03
2022-10-03T05:57:41.681Z,4.80
2022-10-03T06:00:15.919Z,4.50
2022-10-03T06:03:01.688Z,5.15
2022-10-03T06:05:56.786Z,4.60
2022-10-03T06:09:05.547Z,5.60
2022-10-03T06:12:10.316Z,4.63
2022-10-03T06:15:03.260Z,5.20
2022-10-03T06:18:07.914Z,4.68
2022-10-03T06:21:12.907Z,5.13
2022-10-03T06:24:11.441Z,4.68
2022-10-03T06:27:23.768Z,3.67
2022-10-03T06:30:05.884Z,4.10
2022-10-03T06:35:25.737Z,3.78
2022-10-03T06:38:30.114Z,4.43
2022-10-03T06:40:59.990Z,4.20
2022-10-03T06:43:38.269Z,5.50
2022-10-03T06:46:40.369Z,5.00
2022-10-03T06:49:32.415Z,5.13
2022-10-03T06:52:05.068Z,3.95
2022-10-03T06:55:10.624Z,2.40
2022-10-03T06:57:56.384Z,2.70
2022-10-03T07:01:08.633Z,2.55
2022-10-03T07:03:54.302Z,3.50
2022-10-03T07:06:48.855Z,3.70
2022-10-03T07:09:54.030Z,3.42
2022-10-03T07:12:23.532Z,2.53
2022-10-03T07:15:38.083Z,2.50
2022-10-03T07:18:13.394Z,2.08
2022-10-03T07:21:17.945Z,1.83
2022-10-03T07:24:22.185Z,1.80
2022-10-03T07:27:25.085Z,1.92
2022-10-03T07:30:22.985Z,2.38
2022-10-03T07:33:27.262Z,2.45
2022-10-03T07:36:34.384Z,2.28
2022-10-03T07:39:11.502Z,3.00
2022-10-03T07:41:44.541Z,2.47
2022-10-03T07:44:11.596Z,2.50
2022-10-03T07:47:00.334Z,2.72
2022-10-03T07:50:18.184Z,2.83
2022-10-03T07:53:11.065Z,2.30
2022-10-03T07:55:57.105Z,1.60
2022-10-03T07:58:43.165Z,1.20
2022-10-03T08:01:31.835Z,1.70
2022-10-03T08:04:10.834Z,1.40
2022-10-03T08:07:22.624Z,1.45
2022-10-03T08:10:13.904Z,1.38
2022-10-03T08:12:48.254Z,1.13
2022-10-03T08:15:44.254Z,1.38
2022-10-03T08:18:20.151Z,1.10
2022-10-03T08:20:55.456Z,1.20
2022-10-03T08:23:44.012Z,1.45
2022-10-03T08:26:35.646Z,1.65
2022-10-03T08:29:12.794Z,1.30
2022-10-03T08:32:11.574Z,1.05
2022-10-03T08:35:06.743Z,1.27
2022-10-03T08:37:52.288Z,1.25
2022-10-03T08:40:53.734Z,1.30
2022-10-03T08:43:39.724Z,0.98
2022-10-03T08:46:36.380Z,1.23
2022-10-03T08:49:18.775Z,1.10
2022-10-03T08:51:59.464Z,1.20
2022-10-03T08:54:33.758Z,1.20
2022-10-03T08:57:17.383Z,1.20
2022-10-03T09:00:03.174Z,1.50
2022-10-03T09:02:36.599Z,1.40
2022-10-03T09:05:25.238Z,1.38
2022-10-03T09:08:24.584Z,1.17
2022-10-03T09:11:12.954Z,1.15
2022-10-03T09:14:11.106Z,1.25
2022-10-03T09:16:41.268Z,1.30
2022-10-03T09:19:52.391Z,1.17
2022-10-03T09:22:37.777Z,1.65
2022-10-03T09:25:07.695Z,1.75
2022-10-03T09:28:14.107Z,1.33
2022-10-03T09:30:56.411Z,0.90
2022-10-03T09:33:56.456Z,1.48
2022-10-03T09:36:42.179Z,1.10
2022-10-03T09:39:35.306Z,1.20
2022-10-03T09:42:39.374Z,1.00
2022-10-03T09:45:43.604Z,1.05
2022-10-03T09:48:36.997Z,1.08
2022-10-03T09:51:25.645Z,1.27
2022-10-03T09:54:30.326Z,1.30
2022-10-03T09:57:06.166Z,1.42
2022-10-03T09:59:51.746Z,1.42
2022-10-03T10:02:37.095Z,1.13
2022-10-03T10:05:18.584Z,1.10
2022-10-03T10:08:04.727Z,1.30
2022-10-03T10:10:51.277Z,1.42
2022-10-03T10:14:10.467Z,1.77
2022-10-03T10:16:44.571Z,1.65
2022-10-03T10:19:38.484Z,1.50
2022-10-03T10:22:40.684Z,1.63
2022-10-03T10:25:44.915Z,2.15
2022-10-03T10:28:37.715Z,2.10
2022-10-03T10:31:29.509Z,1.55
2022-10-03T10:34:33.826Z,2.00
2022-10-03T10:37:26.764Z,1.70
2022-10-03T10:40:02.952Z,2.40
2022-10-03T10:42:54.234Z,2.60
2022-10-03T10:45:59.055Z,1.65
2022-10-03T10:49:07.600Z,1.70
2022-10-03T10:52:04.214Z,1.33
2022-10-03T10:55:03.517Z,1.30
2022-10-03T10:57:58.283Z,1.27
2022-10-03T11:00:26.501Z,1.63
2022-10-03T11:03:30.785Z,1.38
2022-10-03T11:06:35.064Z,1.50
2022-10-03T11:09:28.415Z,1.52
2022-10-03T11:12:28.695Z,1.70
2022-10-03T11:15:18.715Z,1.50
2022-10-03T11:18:08.865Z,1.50
2022-10-03T11:20:55.467Z,1.27
2022-10-03T11:24:02.155Z,1.50
2022-10-03T11:27:07.975Z,1.48
2022-10-03T11:30:07.767Z,1.52
2022-10-03T11:32:53.480Z,1.85
2022-10-03T11:36:12.104Z,2.20
2022-10-03T11:39:05.506Z,1.88
2022-10-03T11:41:50.675Z,1.40
2022-10-03T11:44:25.105Z,1.85
2022-10-03T11:47:10.836Z,1.40
2022-10-03T11:49:49.936Z,1.40
2022-10-03T11:52:59.405Z,1.33
2022-10-03T11:56:03.724Z,1.40
2022-10-03T11:58:57.598Z,1.50
2022-10-03T12:01:55.655Z,1.35
2022-10-03T12:04:47.257Z,1.52
2022-10-03T12:08:09.877Z,1.20
2022-10-03T12:13:41.814Z,1.10
2022-10-03T12:16:28.964Z,1.00
2022-10-03T12:19:10.296Z,0.60
2022-10-03T12:21:57.246Z,0.90
2022-10-03T12:24:42.704Z,1.00
2022-10-03T12:27:46.925Z,1.02
2022-10-03T12:30:16.652Z,1.00
2022-10-03T12:33:02.716Z,0.70
2022-10-03T12:35:35.805Z,0.80
2022-10-03T12:38:13.272Z,1.02
2022-10-03T12:41:18.423Z,1.35
2022-10-03T12:44:05.540Z,1.60
2022-10-03T12:46:45.522Z,1.42
2022-10-03T12:49:41.088Z,1.17
2022-10-03T12:52:17.320Z,1.20
2022-10-03T12:54:57.664Z,1.73
2022-10-03T12:58:02.408Z,1.60
2022-10-03T13:00:32.416Z,1.38
2022-10-03T13:03:05.188Z,1.80
2022-10-03T13:05:57.899Z,2.00
2022-10-03T13:08:44.856Z,1.95
2022-10-03T13:11:14.985Z,2.20
2022-10-03T13:14:06.468Z,2.15
2022-10-03T13:16:38.394Z,2.00
2022-10-03T13:21:56.354Z,2.13
2022-10-03T13:24:27.343Z,2.00
2022-10-03T13:27:36.149Z,2.10
2022-10-03T13:30:28.535Z,2.25
2022-10-03T13:32:58.465Z,1.70
2022-10-03T13:35:54.607Z,1.63
2022-10-03T13:38:27.635Z,2.00
2022-10-03T13:41:01.182Z,1.90
2022-10-03T13:43:36.547Z,2.38
2022-10-03T13:46:11.533Z,2.50
2022-10-03T13:48:40.068Z,2.60
2022-10-03T13:51:16.290Z,4.28
2022-10-03T13:54:02.113Z,3.13
2022-10-03T13:56:49.974Z,3.13
2022-10-03T13:59:33.775Z,3.70
2022-10-03T14:02:09.701Z,3.13
2022-10-03T14:04:59.887Z,3.20
2022-10-03T14:07:39.855Z,3.42
2022-10-03T14:10:19.285Z,3.70
2022-10-03T14:13:12.864Z,3.78
2022-10-03T14:16:18.646Z,3.80
2022-10-03T14:18:52.003Z,3.25
2022-10-03T14:21:57.526Z,3.05
2022-10-03T14:24:48.241Z,4.20
2022-10-03T14:27:30.574Z,3.92
2022-10-03T14:30:07.291Z,3.88
2022-10-03T14:33:00.026Z,4.50
2022-10-03T14:35:40.243Z,4.75
2022-10-03T14:38:58.565Z,4.88
2022-10-03T14:41:33.097Z,4.47
2022-10-03T14:44:12.622Z,4.88
2022-10-03T14:46:46.584Z,4.70
2022-10-03T14:49:50.994Z,4.70
2022-10-03T14:52:12.798Z,4.97
2022-10-03T14:54:42.919Z,4.90
2022-10-03T14:57:39.650Z,5.28
2022-10-03T15:00:35.473Z,5.38
2022-10-03T15:03:27.920Z,5.35
2022-10-03T15:05:58.993Z,5.47
2022-10-03T15:08:32.408Z,5.90
2022-10-03T15:11:00.507Z,5.43
2022-10-03T15:13:29.051Z,6.40
2022-10-03T15:15:56.703Z,6.15
2022-10-03T15:18:24.780Z,6.70
2022-10-03T15:20:55.361Z,6.50
2022-10-03T15:23:28.347Z,7.55
2022-10-03T15:25:58.054Z,6.97
2022-10-03T15:28:40.166Z,6.53
2022-10-03T15:31:23.992Z,7.30
2022-10-03T15:33:52.382Z,6.78
2022-10-03T15:36:40.202Z,6.35
2022-10-03T15:39:27.799Z,7.43
2022-10-03T15:42:01.330Z,7.10
2022-10-03T15:44:41.816Z,6.70
2022-10-03T15:47:34.196Z,7.30
2022-10-03T15:50:17.332Z,8.63
2022-10-03T15:52:47.865Z,7.68
2022-10-03T15:55:45.008Z,8.73
2022-10-03T15:58:18.180Z,9.32
2022-10-03T16:01:09.058Z,9.10
2022-10-03T16:03:47.992Z,8.98
2022-10-03T16:06:21.919Z,9.30
2022-10-03T16:09:01.633Z,9.65
2022-10-03T16:11:36.387Z,9.38
2022-10-03T16:14:26.611Z,9.38
2022-10-03T16:17:02.499Z,10.82
2022-10-03T16:19:41.697Z,11.57
2022-10-03T16:22:13.610Z,11.75
2022-10-03T16:24:58.091Z,17.92
2022-10-03T16:27:27.349Z,19.48
2022-10-03T16:30:21.948Z,22.63
2022-10-03T16:33:03.704Z,15.80
2022-10-03T16:35:42.169Z,13.85
2022-10-03T16:38:21.027Z,12.23
2022-10-03T16:41:11.441Z,13.23
2022-10-03T16:43:38.645Z,10.32
2022-10-03T16:46:10.163Z,12.07
2022-10-03T16:48:55.597Z,10.80
2022-10-03T16:51:37.264Z,9.10
2022-10-03T16:54:04.924Z,8.68
2022-10-03T16:56:41.914Z,8.80
2022-10-03T16:59:16.914Z,8.57
2022-10-03T17:01:50.047Z,7.28
2022-10-03T17:04:31.680Z,7.00
2022-10-03T17:07:29.081Z,7.35
2022-10-03T17:10:01.088Z,7.53
2022-10-03T17:14:57.384Z,6.70
2022-10-03T17:17:32.485Z,8.32
2022-10-03T17:20:07.090Z,8.90
2022-10-03T17:22:41.571Z,9.88
2022-10-03T17:25:34.566Z,9.63
2022-10-03T17:28:05.456Z,10.90
2022-10-03T17:30:54.962Z,9.15
2022-10-03T17:33:37.189Z,10.27
2022-10-03T17:36:23.066Z,10.30
2022-10-03T17:39:22.575Z,13.45
2022-10-03T17:41:59.648Z,13.00
2022-10-03T17:44:53.537Z,12.55
2022-10-03T17:47:34.176Z,10.52
2022-10-03T17:50:08.418Z,9.20
2022-10-03T17:52:41.604Z,8.70
2022-10-03T17:55:33.321Z,9.48
2022-10-03T17:58:08.132Z,8.90
2022-10-03T18:00:46.152Z,8.13
2022-10-03T18:03:34.867Z,6.85
2022-10-03T18:06:34.500Z,4.35
2022-10-03T18:09:15.125Z,3.97
2022-10-03T18:11:45.318Z,7.53
2022-10-03T18:14:29.079Z,5.13
2022-10-03T18:17:05.046Z,4.72
2022-10-03T18:19:43.861Z,4.90
2022-10-03T18:22:21.771Z,6.28
2022-10-03T18:25:33.684Z,9.25
2022-10-03T18:28:26.566Z,7.03
2022-10-03T18:31:01.485Z,9.15
2022-10-03T18:33:48.920Z,12.63
2022-10-03T18:36:26.626Z,11.38
2022-10-03T18:38:59.836Z,12.02
2022-10-03T18:41:27.295Z,15.57
2022-10-03T18:44:00.302Z,11.38
2022-10-03T18:46:39.906Z,12.30
2022-10-03T18:49:35.790Z,12.55
2022-10-03T18:52:12.309Z,11.63
2022-10-03T18:55:04.223Z,11.93
2022-10-03T18:57:41.486Z,12.07
2022-10-03T19:00:28.216Z,12.35
2022-10-03T19:03:14.117Z,14.70
2022-10-03T19:06:02.536Z,8.20
2022-10-03T19:09:02.166Z,6.75
2022-10-03T19:11:33.006Z,10.25
2022-10-03T19:14:37.973Z,7.80
2022-10-03T19:17:26.836Z,7.50
2022-10-03T19:20:32.585Z,8.23
2022-10-03T19:23:34.846Z,8.10
2022-10-03T19:26:06.607Z,7.28
2022-10-03T19:28:48.262Z,9.27
2022-10-03T19:31:21.809Z,7.43
2022-10-03T19:34:03.488Z,7.55
2022-10-03T19:36:33.157Z,8.07
2022-10-03T19:39:01.223Z,6.80
2022-10-03T19:41:38.724Z,5.18
2022-10-03T19:44:14.666Z,4.43
2022-10-03T19:47:19.307Z,4.30
2022-10-03T19:50:04.334Z,4.65
2022-10-03T19:52:33.406Z,5.60
2022-10-03T19:55:05.641Z,6.55
2022-10-03T19:57:42.453Z,6.95
2022-10-03T20:00:15.511Z,5.10
2022-10-03T20:02:44.526Z,4.65
2022-10-03T20:05:27.808Z,4.20
2022-10-03T20:07:57.976Z,3.45
2022-10-03T20:10:34.535Z,3.47
2022-10-03T20:13:04.428Z,3.63
2022-10-03T20:15:47.402Z,3.22
2022-10-03T20:18:36.227Z,3.72
2022-10-03T20:21:10.645Z,3.10
2022-10-03T20:23:41.388Z,2.30
2022-10-03T20:26:18.617Z,2.78
2022-10-03T20:29:07.120Z,2.75
2022-10-03T20:31:34.438Z,3.08
2022-10-03T20:34:04.963Z,3.75
2022-10-03T20:36:34.283Z,4.68
2022-10-03T20:39:18.087Z,4.60
2022-10-03T20:42:00.175Z,6.30
2022-10-03T20:47:36.033Z,5.67
2022-10-03T20:50:08.693Z,5.00
2022-10-03T20:52:36.208Z,4.82
2022-10-03T20:55:06.636Z,4.65
2022-10-03T20:57:44.885Z,4.05
2022-10-03T21:00:15.067Z,3.83
2022-10-03T21:02:43.192Z,3.40
2022-10-03T21:05:40.456Z,4.00
2022-10-03T21:08:30.519Z,4.30
2022-10-03T21:10:59.756Z,3.97
2022-10-03T21:13:33.525Z,4.18
2022-10-03T21:16:01.912Z,4.18
2022-10-03T21:18:31.243Z,4.68
2022-10-03T21:21:16.951Z,4.50
2022-10-03T21:23:48.772Z,4.97
2022-10-03T21:26:22.412Z,5.03
2022-10-03T21:28:49.546Z,5.35
2022-10-03T21:31:31.217Z,5.80
2022-10-03T21:34:21.476Z,5.35
2022-10-03T21:37:16.332Z,5.38
2022-10-03T21:40:20.513Z,6.05
2022-10-03T21:43:02.431Z,7.13
2022-10-03T21:45:59.353Z,7.30
2022-10-03T21:48:53.896Z,6.57
2022-10-03T21:51:25.356Z,6.15
2022-10-03T21:54:25.415Z,6.97
2022-10-03T21:57:16.998Z,6.93
2022-10-03T22:00:12.300Z,5.70
2022-10-03T22:02:48.346Z,5.35
2022-10-03T22:05:40.055Z,6.07
2022-10-03T22:08:18.954Z,5.75
2022-10-03T22:11:03.904Z,5.40
2022-10-03T22:13:36.039Z,5.35
2022-10-03T22:16:25.778Z,5.15
2022-10-03T22:19:18.835Z,5.95
2022-10-03T22:21:51.777Z,3.35
2022-10-03T22:24:30.771Z,4.07
2022-10-03T22:27:09.985Z,3.90
2022-10-03T22:29:52.805Z,3.60
2022-10-03T22:32:45.563Z,2.88
2022-10-03T22:35:49.908Z,3.20
2022-10-03T22:38:17.930Z,2.55
2022-10-03T22:40:47.147Z,2.30
2022-10-03T22:43:15.436Z,1.85
2022-10-03T22:45:45.954Z,2.17
2022-10-03T22:48:17.994Z,1.80
2022-10-03T22:53:15.736Z,1.60
2022-10-03T22:55:44.595Z,1.20
2022-10-03T22:58:12.451Z,1.48
2022-10-03T23:00:42.248Z,1.20
2022-10-03T23:03:13.459Z,1.40
2022-10-03T23:06:11.598Z,1.63
2022-10-03T23:08:56.510Z,1.50
2022-10-03T23:11:26.199Z,1.40
2022-10-03T23:13:54.025Z,1.90
2022-10-03T23:16:45.877Z,1.90
2022-10-03T23:19:27.364Z,2.45
2022-10-03T23:21:56.805Z,2.30
2022-10-03T23:24:42.468Z,2.08
2022-10-03T23:27:28.197Z,2.50
2022-10-03T23:30:18.025Z,2.40
2022-10-03T23:32:47.772Z,3.00
2022-10-03T23:35:34.355Z,3.08
2022-10-03T23:38:01.827Z,2.85
2022-10-03T23:40:44.934Z,2.42
2022-10-03T23:43:34.258Z,2.90
2022-10-03T23:46:04.010Z,2.88
2022-10-03T23:48:32.896Z,2.58
2022-10-03T23:51:02.946Z,3.20
2022-10-03T23:53:39.709Z,2.90
2022-10-03T23:56:23.467Z,3.00
2022-10-03T23:59:02.477Z,3.30
